Midlothian, Texas
Current Conditions -  °F | °C
As of 3:15 PM on Tuesday 21 Oct 2014 (Local Time) from KJWY Reporting Station
Clear Clear  
Wind Chill: 81°   Ceiling: Unl
Heat Index: 81°   Visibility: 10mi
Dew Point: 55°   Wind: 6mph
Humidity: 41%   Direction: 130°SE
Pressure: 30.05"   Gusts: NA
Location:  32.48°N, 96.99°W
Report Text: KJWY 212015Z AUTO 13005KT 10SM CLR 27/13 A3005 RMK AO2 T02730129
Loading
Personal Weather Stations






























Interactive Weather Map
Tropical Storm Tracking
New forecast layout! Learn more

10-Day Weather Forecast

Advertisements
Track Severe Weather on mobile